Time;durP1;ratioP1;P1;durP2;ratioP2;P2;SDS_P1;SDS_P2;PMS_P1;PMS_P2;Temp;Humidity;BMP_temperature;BMP_pressure;BME280_temperature;BME280_humidity;BME280_pressure;Samples;Min_cycle;Max_cycle;Signal;HPM_P1;HPM_P2
2022/08/18 00:00:17;;;;;;;34.42;30.83;;;;;;;;;;4992831;28;20038;-72
2022/08/18 00:02:43;;;;;;;34.67;30.00;;;;;;;;;;4993024;28;20580;-71
2022/08/18 00:05:11;;;;;;;32.95;29.30;;;;;;;;;;4993054;28;20085;-71
2022/08/18 00:07:38;;;;;;;31.60;28.15;;;;;;;;;;4992563;28;20022;-71
2022/08/18 00:10:06;;;;;;;33.40;30.00;;;;;;;;;;4975420;28;20080;-71
2022/08/18 00:12:36;;;;;;;35.92;27.95;;;;;;;;;;4975163;28;20027;-71
2022/08/18 00:15:04;;;;;;;34.47;30.77;;;;;;;;;;4973325;28;20077;-71
2022/08/18 00:17:31;;;;;;;36.33;30.50;;;;;;;;;;4973534;28;20026;-71
2022/08/18 00:19:58;;;;;;;31.65;27.98;;;;;;;;;;4972794;28;20552;-72
2022/08/18 00:22:24;;;;;;;32.05;28.83;;;;;;;;;;4973244;28;20057;-71
2022/08/18 00:24:52;;;;;;;33.35;29.95;;;;;;;;;;4973518;28;20126;-71
2022/08/18 00:27:22;;;;;;;35.25;31.25;;;;;;;;;;4972838;28;20031;-71
2022/08/18 00:29:49;;;;;;;34.00;30.35;;;;;;;;;;4972897;28;20033;-71
2022/08/18 00:32:20;;;;;;;35.40;31.40;;;;;;;;;;4986350;28;20408;-71
2022/08/18 00:34:46;;;;;;;24.77;22.08;;;;;;;;;;4974778;28;20109;-71
2022/08/18 00:37:12;;;;;;;26.73;23.85;;;;;;;;;;4975956;28;20437;-71
2022/08/18 00:39:38;;;;;;;40.08;35.90;;;;;;;;;;4985445;28;20396;-72
2022/08/18 00:42:18;;;;;;;36.15;32.28;;;;;;;;;;4992054;28;20100;-71
2022/08/18 00:44:44;;;;;;;;;;;;;;;;;;4991664;28;20105;-72
2022/08/18 00:47:10;;;;;;;32.50;27.05;;;;;;;;;;4992194;28;19956;-72
2022/08/18 00:49:37;;;;;;;30.05;26.52;;;;;;;;;;4991808;28;20089;-71
2022/08/18 00:52:04;;;;;;;33.80;29.02;;;;;;;;;;4991292;28;20027;-71
2022/08/18 00:54:32;;;;;;;30.48;27.30;;;;;;;;;;4992403;28;20034;-72
2022/08/18 00:57:00;;;;;;;33.58;29.88;;;;;;;;;;4991978;28;20027;-72
2022/08/18 00:59:46;;;;;;;32.80;28.45;;;;;;;;;;4991735;28;20528;-72
2022/08/18 01:02:17;;;;;;;24.17;21.67;;;;;;;;;;4991586;28;20030;-71
2022/08/18 01:04:57;;;;;;;30.38;27.17;;;;;;;;;;4991147;28;20031;-71
2022/08/18 01:07:46;;;;;;;30.88;26.75;;;;;;;;;;4990913;28;20029;-71
2022/08/18 01:10:16;;;;;;;30.60;26.83;;;;;;;;;;4981300;28;20053;-71
2022/08/18 01:12:48;;;;;;;33.83;28.55;;;;;;;;;;4991268;28;20104;-71
2022/08/18 01:15:15;;;;;;;30.52;25.23;;;;;;;;;;4991741;28;20113;-71
2022/08/18 01:23:15;;;;;;;27.25;24.15;;;;;;;;;;4991938;28;20096;-71
2022/08/18 01:26:01;;;;;;;27.38;23.92;;;;;;;;;;4991048;28;20026;-71
2022/08/18 01:28:28;;;;;;;27.08;23.45;;;;;;;;;;4990966;28;20029;-71
2022/08/18 01:30:57;;;;;;;23.45;20.02;;;;;;;;;;4991302;28;20038;-70
2022/08/18 01:33:25;;;;;;;23.42;20.88;;;;;;;;;;4991461;28;20030;-71
2022/08/18 01:35:53;;;;;;;22.65;20.30;;;;;;;;;;4990643;28;20061;-71
2022/08/18 01:38:21;;;;;;;22.70;20.33;;;;;;;;;;4991429;28;20110;-71
2022/08/18 01:40:49;;;;;;;22.77;18.48;;;;;;;;;;4973334;28;20035;-71
2022/08/18 01:43:15;;;;;;;22.17;19.88;;;;;;;;;;4990951;28;20425;-71
2022/08/18 01:45:41;;;;;;;22.20;19.15;;;;;;;;;;4973070;28;20030;-71
2022/08/18 01:48:09;;;;;;;22.13;19.38;;;;;;;;;;4991669;28;20058;-71
2022/08/18 01:50:36;;;;;;;20.80;17.92;;;;;;;;;;4992005;28;20061;-71
2022/08/18 01:53:04;;;;;;;20.45;18.27;;;;;;;;;;4992305;28;20531;-71
2022/08/18 01:55:34;;;;;;;22.70;19.38;;;;;;;;;;4991294;28;20563;-71
2022/08/18 01:58:00;;;;;;;21.95;19.70;;;;;;;;;;4990686;28;20073;-71
2022/08/18 02:00:27;;;;;;;20.58;17.90;;;;;;;;;;4990831;28;20030;-71
2022/08/18 02:02:53;;;;;;;20.25;18.15;;;;;;;;;;4991204;28;20026;-71
2022/08/18 02:05:23;;;;;;;21.63;18.02;;;;;;;;;;4975470;28;20489;-71
2022/08/18 02:07:49;;;;;;;;;;;;;;;;;;4972034;28;20026;-71
2022/08/18 02:10:16;;;;;;;19.40;17.08;;;;;;;;;;4970948;28;19973;-71
2022/08/18 02:12:42;;;;;;;19.25;17.08;;;;;;;;;;4970949;28;20027;-72
2022/08/18 02:15:09;;;;;;;24.55;18.15;;;;;;;;;;4971070;28;20031;-71
2022/08/18 02:17:39;;;;;;;20.85;16.60;;;;;;;;;;4953928;28;20038;-72
2022/08/18 02:20:07;;;;;;;21.95;18.25;;;;;;;;;;4970551;28;20725;-71
2022/08/18 02:22:33;;;;;;;20.65;17.35;;;;;;;;;;4971426;28;20117;-71
2022/08/18 02:24:59;;;;;;;19.13;15.98;;;;;;;;;;4970701;28;20537;-71
2022/08/18 02:27:26;;;;;;;17.83;15.88;;;;;;;;;;4970739;28;20057;-71
2022/08/18 02:29:52;;;;;;;18.95;16.98;;;;;;;;;;4971047;28;20064;-71
2022/08/18 02:32:18;;;;;;;20.38;17.67;;;;;;;;;;4970451;28;20441;-72
2022/08/18 02:34:44;;;;;;;19.65;16.50;;;;;;;;;;4970753;28;20026;-72
2022/08/18 02:37:10;;;;;;;20.73;17.02;;;;;;;;;;4985940;28;20033;-71
2022/08/18 02:39:37;;;;;;;22.38;17.90;;;;;;;;;;4990364;28;20044;-71
2022/08/18 02:42:07;;;;;;;18.23;16.17;;;;;;;;;;4989994;28;20057;-71
2022/08/18 02:44:33;;;;;;;19.00;16.67;;;;;;;;;;4989549;28;20034;-72
2022/08/18 02:46:59;;;;;;;19.52;17.35;;;;;;;;;;4989341;28;20076;-71
2022/08/18 02:49:25;;;;;;;20.23;16.17;;;;;;;;;;4972219;28;20026;-71
2022/08/18 02:51:52;;;;;;;21.45;17.52;;;;;;;;;;4990088;28;20058;-71
2022/08/18 02:54:19;;;;;;;21.38;15.90;;;;;;;;;;4955703;28;20034;-72
2022/08/18 02:56:46;;;;;;;20.67;16.77;;;;;;;;;;4969725;28;20039;-72
2022/08/18 02:59:14;;;;;;;18.77;15.85;;;;;;;;;;4970782;28;20038;-72
2022/08/18 03:01:42;;;;;;;20.65;16.27;;;;;;;;;;4952853;28;20433;-70
2022/08/18 03:04:09;;;;;;;19.05;16.08;;;;;;;;;;4970332;28;20029;-71
2022/08/18 03:06:36;;;;;;;18.25;16.27;;;;;;;;;;4970559;28;20042;-71
2022/08/18 03:09:04;;;;;;;16.77;13.63;;;;;;;;;;4970115;28;20109;-72
2022/08/18 03:11:30;;;;;;;17.23;14.60;;;;;;;;;;4970257;28;20146;-71
2022/08/18 03:13:56;;;;;;;18.35;14.73;;;;;;;;;;4970213;28;20050;-71
2022/08/18 03:16:23;;;;;;;17.45;14.95;;;;;;;;;;4969583;28;20034;-71
2022/08/18 03:18:49;;;;;;;14.65;12.95;;;;;;;;;;4970266;28;20046;-71
2022/08/18 03:21:19;;;;;;;17.15;13.60;;;;;;;;;;4970367;28;20104;-71
2022/08/18 03:23:45;;;;;;;18.02;14.88;;;;;;;;;;4970514;28;20023;-71
2022/08/18 03:26:12;;;;;;;19.25;15.07;;;;;;;;;;4970122;28;20031;-71
2022/08/18 03:28:39;;;;;;;18.98;14.25;;;;;;;;;;4969879;28;20029;-71
2022/08/18 03:31:06;;;;;;;17.23;14.88;;;;;;;;;;4952192;28;20035;-71
2022/08/18 03:33:32;;;;;;;17.30;14.38;;;;;;;;;;4970352;28;20058;-71
2022/08/18 03:36:05;;;;;;;15.32;13.48;;;;;;;;;;4975585;28;20022;-71
2022/08/18 03:38:31;;;;;;;17.90;13.90;;;;;;;;;;4989295;28;20035;-71
2022/08/18 03:40:57;;;;;;;15.68;13.57;;;;;;;;;;4989077;28;20038;-71
2022/08/18 03:43:23;;;;;;;15.48;13.57;;;;;;;;;;4989230;28;20077;-71
2022/08/18 03:45:49;;;;;;;18.90;14.90;;;;;;;;;;4989747;28;20036;-71
2022/08/18 03:48:16;;;;;;;16.92;13.38;;;;;;;;;;4989216;28;20030;-71
2022/08/18 03:50:43;;;;;;;15.43;13.10;;;;;;;;;;4983363;28;20031;-71
2022/08/18 03:53:10;;;;;;;17.80;13.18;;;;;;;;;;4970112;28;20358;-71
2022/08/18 03:55:36;;;;;;;16.50;13.25;;;;;;;;;;4952385;28;20050;-71
2022/08/18 03:58:02;;;;;;;16.42;13.00;;;;;;;;;;4969583;28;20022;-71
2022/08/18 04:00:29;;;;;;;15.32;12.43;;;;;;;;;;4970002;28;20090;-71
2022/08/18 04:02:55;;;;;;;17.05;13.35;;;;;;;;;;4952194;28;20033;-71
2022/08/18 04:05:21;;;;;;;13.30;11.63;;;;;;;;;;4969791;28;20767;-71
2022/08/18 04:07:47;;;;;;;16.40;13.23;;;;;;;;;;4969825;28;20512;-71
2022/08/18 04:10:13;;;;;;;13.70;12.00;;;;;;;;;;4972714;28;20031;-71
2022/08/18 04:12:41;;;;;;;17.63;13.88;;;;;;;;;;4990240;28;20036;-71
2022/08/18 04:15:08;;;;;;;14.63;13.05;;;;;;;;;;4993265;28;20053;-71
2022/08/18 04:17:34;;;;;;;17.00;13.63;;;;;;;;;;4992239;28;20465;-71
2022/08/18 04:20:00;;;;;;;12.13;10.57;;;;;;;;;;4972797;28;20392;-71
2022/08/18 04:22:26;;;;;;;15.25;13.65;;;;;;;;;;4973434;28;20035;-71
2022/08/18 04:24:53;;;;;;;18.98;14.65;;;;;;;;;;4973275;28;20737;-71
2022/08/18 04:27:20;;;;;;;15.70;13.43;;;;;;;;;;4991748;28;20759;-71
2022/08/18 04:29:46;;;;;;;16.20;13.27;;;;;;;;;;4992282;28;20037;-71
2022/08/18 04:32:13;;;;;;;17.73;13.25;;;;;;;;;;4992138;28;20049;-71
2022/08/18 04:34:39;;;;;;;15.50;13.38;;;;;;;;;;4992145;28;20026;-73
2022/08/18 04:37:07;;;;;;;16.45;14.68;;;;;;;;;;4976604;28;20106;-71
2022/08/18 04:39:33;;;;;;;14.30;12.57;;;;;;;;;;4972785;28;20026;-71
2022/08/18 04:42:03;;;;;;;18.25;13.82;;;;;;;;;;4955306;28;20042;-71
2022/08/18 04:44:30;;;;;;;15.25;13.05;;;;;;;;;;4972883;28;20038;-72
2022/08/18 04:46:56;;;;;;;16.98;13.35;;;;;;;;;;4972485;28;20493;-72
2022/08/18 04:49:24;;;;;;;17.10;14.18;;;;;;;;;;4984844;28;20040;-72
2022/08/18 04:54:39;;;;;;;20.20;15.88;;;;;;;;;;4992158;28;20049;-71
2022/08/18 04:57:12;;;;;;;20.52;16.58;;;;;;;;;;4974433;28;20026;-72
2022/08/18 04:59:39;;;;;;;19.58;17.02;;;;;;;;;;4991949;28;20034;-72
2022/08/18 05:02:07;;;;;;;18.48;16.65;;;;;;;;;;4990911;28;20040;-72
2022/08/18 05:04:33;;;;;;;19.13;16.35;;;;;;;;;;4972657;28;20470;-71
2022/08/18 05:06:59;;;;;;;21.23;16.33;;;;;;;;;;4972422;28;20050;-72
2022/08/18 05:09:25;;;;;;;19.98;15.82;;;;;;;;;;4954685;28;20589;-72
2022/08/18 05:11:51;;;;;;;22.38;17.00;;;;;;;;;;4972022;28;20453;-72
2022/08/18 05:14:18;;;;;;;21.13;17.23;;;;;;;;;;4971870;28;20114;-71
2022/08/18 05:16:45;;;;;;;24.70;17.77;;;;;;;;;;4981936;28;20026;-72
2022/08/18 05:19:11;;;;;;;21.17;18.92;;;;;;;;;;4991379;28;20027;-72
2022/08/18 05:21:40;;;;;;;25.00;17.67;;;;;;;;;;4974547;28;20046;-72
2022/08/18 05:24:07;;;;;;;21.13;18.92;;;;;;;;;;4990468;28;20022;-71
2022/08/18 05:26:33;;;;;;;21.83;18.40;;;;;;;;;;4991459;28;20092;-72
2022/08/18 05:29:03;;;;;;;19.95;17.55;;;;;;;;;;4974972;28;20388;-72
2022/08/18 05:31:32;;;;;;;12.80;9.80;;;;;;;;;;4993472;28;20094;-69
2022/08/18 05:34:01;;;;;;;11.17;9.30;;;;;;;;;;4992284;28;20026;-68
2022/08/18 05:36:36;;;;;;;10.20;8.48;;;;;;;;;;4981714;28;20026;-68
2022/08/18 05:39:11;;;;;;;10.20;7.28;;;;;;;;;;4971573;28;20417;-69
2022/08/18 05:41:43;;;;;;;9.38;7.72;;;;;;;;;;4954625;28;20034;-67
2022/08/18 05:44:13;;;;;;;9.95;6.38;;;;;;;;;;4971724;28;20034;-70
2022/08/18 05:46:46;;;;;;;8.32;6.97;;;;;;;;;;4979973;28;20050;-67
2022/08/18 05:49:12;;;;;;;11.85;8.18;;;;;;;;;;4973009;28;20034;-68
2022/08/18 05:51:43;;;;;;;10.60;7.70;;;;;;;;;;4990809;28;20030;-70
2022/08/18 05:56:58;;;;;;;10.38;6.65;;;;;;;;;;4971004;28;20504;-69
2022/08/18 05:59:30;;;;;;;11.05;5.55;;;;;;;;;;4971204;28;20046;-68
2022/08/18 06:02:00;;;;;;;10.27;6.40;;;;;;;;;;4971519;28;20039;-69
2022/08/18 06:04:30;;;;;;;11.25;6.13;;;;;;;;;;4971156;28;20547;-68
2022/08/18 06:06:56;;;;;;;12.40;7.28;;;;;;;;;;4971025;28;20474;-69
2022/08/18 06:09:28;;;;;;;8.57;5.60;;;;;;;;;;4971294;28;20018;-69
2022/08/18 06:11:58;;;;;;;8.10;5.65;;;;;;;;;;4971607;28;20084;-69
2022/08/18 06:14:24;;;;;;;;;;;;;;;;;;4980294;28;20035;-69
2022/08/18 06:17:08;;;;;;;11.10;5.72;;;;;;;;;;4976371;28;20269;-69
2022/08/18 06:19:51;;;;;;;8.38;5.80;;;;;;;;;;4974367;28;20449;-69
2022/08/18 06:22:38;;;;;;;9.20;5.47;;;;;;;;;;4968602;28;20038;-69
2022/08/18 06:25:22;;;;;;;10.60;5.63;;;;;;;;;;4989370;28;20026;-68
2022/08/18 06:27:54;;;;;;;9.88;5.47;;;;;;;;;;4990475;28;20058;-68
2022/08/18 06:30:23;;;;;;;9.55;7.05;;;;;;;;;;4984164;28;20039;-68
2022/08/18 06:33:06;;;;;;;11.63;7.00;;;;;;;;;;4989534;28;20180;-68
2022/08/18 06:35:49;;;;;;;7.70;3.95;;;;;;;;;;4989228;28;20022;-68
2022/08/18 06:38:37;;;;;;;9.07;4.90;;;;;;;;;;4973326;28;20031;-68
2022/08/18 06:41:12;;;;;;;7.30;3.90;;;;;;;;;;4970676;28;20043;-69
2022/08/18 06:43:40;;;;;;;7.95;5.70;;;;;;;;;;4970709;28;20073;-68
2022/08/18 06:46:10;;;;;;;6.43;3.75;;;;;;;;;;4982277;28;20073;-68
2022/08/18 06:48:56;;;;;;;7.55;3.55;;;;;;;;;;4989603;28;20400;-68
2022/08/18 06:51:26;;;;;;;5.82;3.05;;;;;;;;;;4989524;28;20053;-69
2022/08/18 06:53:56;;;;;;;9.52;6.40;;;;;;;;;;4989590;28;20041;-69
2022/08/18 06:56:24;;;;;;;5.20;3.77;;;;;;;;;;4989721;28;20065;-69
2022/08/18 06:58:54;;;;;;;5.07;3.15;;;;;;;;;;4964965;28;20035;-68
2022/08/18 07:01:20;;;;;;;6.07;4.18;;;;;;;;;;4970024;28;20405;-69
2022/08/18 07:03:50;;;;;;;10.25;5.35;;;;;;;;;;4952612;28;20081;-68
2022/08/18 07:06:22;;;;;;;10.43;5.07;;;;;;;;;;4970353;28;20035;-68
2022/08/18 07:08:52;;;;;;;9.27;6.55;;;;;;;;;;4970540;28;20014;-69
2022/08/18 07:11:29;;;;;;;10.00;7.13;;;;;;;;;;4982909;28;20485;-68
2022/08/18 07:13:57;;;;;;;12.45;5.47;;;;;;;;;;4971051;28;20037;-69
2022/08/18 07:16:31;;;;;;;10.93;7.00;;;;;;;;;;4987475;28;20035;-68
2022/08/18 07:19:06;;;;;;;8.27;4.40;;;;;;;;;;4986646;28;20030;-68
2022/08/18 07:21:34;;;;;;;11.65;6.68;;;;;;;;;;4979713;28;20038;-69
2022/08/18 07:24:09;;;;;;;9.98;4.95;;;;;;;;;;4989204;28;20062;-69
2022/08/18 07:26:54;;;;;;;6.70;3.92;;;;;;;;;;4989565;28;20022;-69
2022/08/18 07:29:20;;;;;;;10.52;6.53;;;;;;;;;;4989529;28;20026;-69
2022/08/18 07:31:51;;;;;;;10.73;5.63;;;;;;;;;;4984342;28;20037;-68
2022/08/18 07:34:27;;;;;;;6.70;4.45;;;;;;;;;;4989618;28;20049;-68
2022/08/18 07:37:05;;;;;;;9.20;7.10;;;;;;;;;;4978216;28;20033;-69
2022/08/18 07:39:37;;;;;;;6.20;3.63;;;;;;;;;;4969931;28;20425;-69
2022/08/18 07:42:08;;;;;;;8.70;3.90;;;;;;;;;;4969336;28;20545;-69
2022/08/18 07:44:42;;;;;;;8.18;4.60;;;;;;;;;;4969557;28;20170;-69
2022/08/18 07:47:14;;;;;;;8.65;4.50;;;;;;;;;;4970163;28;20485;-69
2022/08/18 07:49:42;;;;;;;5.30;3.00;;;;;;;;;;4973581;28;20030;-68
2022/08/18 07:52:13;;;;;;;6.28;3.22;;;;;;;;;;4984617;28;20029;-69
2022/08/18 07:54:39;;;;;;;11.32;6.28;;;;;;;;;;4992964;28;20401;-69
2022/08/18 07:57:14;;;;;;;6.15;3.05;;;;;;;;;;4992473;28;20488;-68
2022/08/18 07:59:57;;;;;;;10.43;4.22;;;;;;;;;;4992452;28;20031;-68
2022/08/18 08:02:32;;;;;;;7.18;3.08;;;;;;;;;;4992892;28;20042;-68
2022/08/18 08:05:06;;;;;;;7.00;3.47;;;;;;;;;;4992803;28;20108;-68
2022/08/18 08:07:45;;;;;;;7.80;4.07;;;;;;;;;;4975014;28;20125;-69
2022/08/18 08:10:21;;;;;;;6.25;3.20;;;;;;;;;;4992857;28;20030;-70
2022/08/18 08:12:47;;;;;;;5.43;2.97;;;;;;;;;;4992526;28;20027;-69
2022/08/18 08:15:26;;;;;;;8.52;3.33;;;;;;;;;;4992985;28;20034;-70
2022/08/18 08:18:04;;;;;;;9.73;4.47;;;;;;;;;;4991465;28;20220;-70
2022/08/18 08:20:37;;;;;;;5.22;3.13;;;;;;;;;;4992957;28;20489;-70
2022/08/18 08:23:16;;;;;;;6.60;3.47;;;;;;;;;;4992553;28;20113;-70
2022/08/18 08:26:00;;;;;;;7.13;4.43;;;;;;;;;;4991962;28;20428;-70
2022/08/18 08:28:26;;;;;;;8.82;5.00;;;;;;;;;;4992312;28;20034;-70
2022/08/18 08:31:01;;;;;;;8.15;4.35;;;;;;;;;;4992337;28;20091;-70
2022/08/18 08:33:40;;;;;;;6.25;3.55;;;;;;;;;;4992501;28;20117;-70
2022/08/18 08:36:08;;;;;;;5.57;3.05;;;;;;;;;;4989549;28;20023;-70
2022/08/18 08:38:45;;;;;;;6.20;3.88;;;;;;;;;;4992991;28;20555;-70
2022/08/18 08:41:24;;;;;;;6.18;3.25;;;;;;;;;;4990238;28;20053;-69
2022/08/18 08:43:57;;;;;;;3.58;2.22;;;;;;;;;;4984536;28;20038;-70
2022/08/18 08:46:28;;;;;;;5.60;3.00;;;;;;;;;;4989318;28;20049;-69
2022/08/18 08:49:14;;;;;;;4.72;3.05;;;;;;;;;;4984040;28;20022;-70
2022/08/18 08:51:46;;;;;;;5.75;2.60;;;;;;;;;;4946349;28;20031;-68
2022/08/18 08:54:27;;;;;;;4.90;2.47;;;;;;;;;;4972671;28;20027;-69
2022/08/18 08:56:53;;;;;;;3.90;2.63;;;;;;;;;;4980397;28;20774;-69
2022/08/18 08:59:24;;;;;;;4.72;3.00;;;;;;;;;;4988588;28;20025;-69
2022/08/18 09:01:53;;;;;;;7.03;3.70;;;;;;;;;;4985375;28;20038;-69
2022/08/18 09:04:38;;;;;;;7.30;3.15;;;;;;;;;;4991212;28;20025;-68
2022/08/18 09:07:23;;;;;;;5.53;3.60;;;;;;;;;;4961756;28;20027;-68
2022/08/18 09:10:04;;;;;;;6.88;3.78;;;;;;;;;;4989957;28;20030;-68
2022/08/18 09:12:30;;;;;;;5.15;3.17;;;;;;;;;;4991700;28;20033;-69
2022/08/18 09:15:13;;;;;;;6.43;3.75;;;;;;;;;;4991520;28;20026;-69
2022/08/18 09:17:46;;;;;;;4.50;2.78;;;;;;;;;;4975210;28;20093;-69
2022/08/18 09:20:12;;;;;;;4.53;2.80;;;;;;;;;;4981110;28;20116;-69
2022/08/18 09:22:58;;;;;;;6.05;2.83;;;;;;;;;;4985341;28;20146;-69
2022/08/18 09:25:40;;;;;;;5.55;2.70;;;;;;;;;;4983194;28;20089;-71
2022/08/18 09:28:26;;;;;;;6.80;4.00;;;;;;;;;;4964345;28;20093;-69
2022/08/18 09:30:53;;;;;;;5.60;3.42;;;;;;;;;;4968036;28;20504;-68
2022/08/18 09:33:25;;;;;;;5.45;2.85;;;;;;;;;;4986259;28;20073;-68
2022/08/18 09:36:18;;;;;;;4.72;3.20;;;;;;;;;;4985477;28;20113;-69
2022/08/18 09:41:47;;;;;;;6.50;2.92;;;;;;;;;;4980393;28;20061;-68
2022/08/18 09:44:34;;;;;;;4.13;2.65;;;;;;;;;;4967427;28;20039;-68
2022/08/18 09:47:01;;;;;;;7.40;4.03;;;;;;;;;;4981461;28;20054;-67
2022/08/18 09:49:29;;;;;;;4.75;2.22;;;;;;;;;;4986048;28;20480;-68
2022/08/18 09:51:59;;;;;;;4.53;2.47;;;;;;;;;;4985577;28;20025;-69
2022/08/18 09:54:32;;;;;;;4.50;2.20;;;;;;;;;;4981979;28;20034;-70
2022/08/18 09:57:16;;;;;;;4.13;2.38;;;;;;;;;;4984539;28;20038;-69
2022/08/18 09:59:52;;;;;;;3.22;2.00;;;;;;;;;;4983654;28;20069;-69
2022/08/18 10:02:36;;;;;;;4.90;2.50;;;;;;;;;;4979660;28;20030;-67
2022/08/18 10:05:25;;;;;;;3.92;2.30;;;;;;;;;;4962045;28;20029;-67
2022/08/18 10:08:04;;;;;;;3.03;1.83;;;;;;;;;;4982391;28;20034;-68
2022/08/18 10:10:48;;;;;;;3.30;2.25;;;;;;;;;;4981999;28;20038;-68
2022/08/18 10:13:16;;;;;;;5.50;2.70;;;;;;;;;;4980965;28;20034;-68
2022/08/18 10:16:04;;;;;;;4.38;2.20;;;;;;;;;;4984869;28;20069;-68
2022/08/18 10:18:52;;;;;;;3.85;2.10;;;;;;;;;;4980766;28;20042;-70
2022/08/18 10:21:27;;;;;;;3.85;2.13;;;;;;;;;;4982812;28;20042;-70
2022/08/18 10:23:56;;;;;;;3.30;2.10;;;;;;;;;;4984020;28;20118;-69
2022/08/18 10:26:36;;;;;;;3.35;1.85;;;;;;;;;;4981919;28;20838;-70
2022/08/18 10:29:02;;;;;;;3.58;2.08;;;;;;;;;;4981438;28;20129;-70
2022/08/18 10:31:31;;;;;;;4.30;2.05;;;;;;;;;;4979708;28;20030;-68
2022/08/18 10:34:10;;;;;;;4.32;2.30;;;;;;;;;;4978677;28;20115;-67
2022/08/18 10:36:55;;;;;;;5.07;2.65;;;;;;;;;;4978491;28;20058;-68
2022/08/18 10:39:22;;;;;;;4.07;2.28;;;;;;;;;;4982431;28;20076;-68
2022/08/18 10:42:08;;;;;;;3.20;1.92;;;;;;;;;;4979939;28;20490;-68
2022/08/18 10:44:37;;;;;;;5.40;2.20;;;;;;;;;;4972177;28;20537;-67
2022/08/18 10:47:03;;;;;;;4.57;2.30;;;;;;;;;;4983453;28;20046;-68
2022/08/18 10:49:31;;;;;;;2.97;1.65;;;;;;;;;;4985141;28;20552;-67
2022/08/18 10:52:05;;;;;;;3.63;2.40;;;;;;;;;;4964713;28;20026;-72
2022/08/18 10:54:37;;;;;;;5.47;2.88;;;;;;;;;;4990088;28;20030;-72
2022/08/18 10:57:09;;;;;;;4.80;2.60;;;;;;;;;;4990019;28;20108;-72
2022/08/18 10:59:42;;;;;;;4.60;2.35;;;;;;;;;;4973685;28;20026;-73
2022/08/18 11:02:11;;;;;;;7.30;2.15;;;;;;;;;;4990904;28;20528;-72
2022/08/18 11:04:42;;;;;;;4.15;2.53;;;;;;;;;;4988495;28;20024;-72
2022/08/18 11:07:11;;;;;;;4.72;2.35;;;;;;;;;;4988910;28;20106;-71
2022/08/18 11:09:37;;;;;;;4.50;2.70;;;;;;;;;;4987288;28;20031;-71
2022/08/18 11:12:04;;;;;;;4.00;2.55;;;;;;;;;;4984763;28;20030;-72
2022/08/18 11:14:42;;;;;;;4.72;2.65;;;;;;;;;;4987696;28;20042;-72
2022/08/18 11:17:14;;;;;;;5.97;3.40;;;;;;;;;;4986094;28;20021;-72
2022/08/18 11:19:41;;;;;;;4.68;2.42;;;;;;;;;;4985588;28;20027;-73
2022/08/18 11:22:19;;;;;;;4.57;2.35;;;;;;;;;;4982494;28;20051;-72
2022/08/18 11:24:45;;;;;;;7.35;5.10;;;;;;;;;;4975339;28;20026;-72
2022/08/18 11:27:19;;;;;;;6.25;3.15;;;;;;;;;;4984803;28;20053;-72
2022/08/18 11:29:45;;;;;;;8.95;4.05;;;;;;;;;;4956316;28;20038;-72
2022/08/18 11:32:27;;;;;;;5.93;3.53;;;;;;;;;;4984577;28;20033;-72
2022/08/18 11:35:10;;;;;;;8.68;4.90;;;;;;;;;;4973737;28;20178;-73
2022/08/18 11:37:42;;;;;;;8.07;5.07;;;;;;;;;;4983242;28;20114;-72
2022/08/18 11:40:22;;;;;;;9.73;4.50;;;;;;;;;;4973345;28;20035;-73
2022/08/18 11:42:57;;;;;;;6.53;3.87;;;;;;;;;;4983187;28;20461;-72
2022/08/18 11:45:24;;;;;;;9.45;5.20;;;;;;;;;;4956008;28;20602;-72
2022/08/18 11:48:09;;;;;;;6.78;3.50;;;;;;;;;;4983385;28;20051;-73
2022/08/18 11:50:44;;;;;;;8.15;4.93;;;;;;;;;;4959788;28;20030;-73
2022/08/18 11:53:17;;;;;;;8.68;5.88;;;;;;;;;;4982098;28;20105;-72
2022/08/18 11:55:43;;;;;;;7.57;5.30;;;;;;;;;;4991303;28;20030;-72
2022/08/18 11:58:09;;;;;;;6.07;3.42;;;;;;;;;;4981665;28;20030;-72
2022/08/18 12:00:40;;;;;;;7.32;4.22;;;;;;;;;;4991820;28;20042;-72
2022/08/18 12:03:06;;;;;;;5.70;3.22;;;;;;;;;;4991577;28;20061;-73
2022/08/18 12:05:43;;;;;;;8.65;4.90;;;;;;;;;;4992961;28;20050;-73
2022/08/18 12:08:17;;;;;;;10.00;5.40;;;;;;;;;;4987814;28;20054;-73
2022/08/18 12:10:43;;;;;;;5.13;3.13;;;;;;;;;;4973301;28;20035;-73
2022/08/18 12:13:09;;;;;;;7.20;4.13;;;;;;;;;;4968048;28;20022;-73
2022/08/18 12:15:37;;;;;;;5.38;3.22;;;;;;;;;;4978474;28;20023;-73
2022/08/18 12:18:03;;;;;;;4.93;3.38;;;;;;;;;;4980254;28;20109;-73
2022/08/18 12:20:29;;;;;;;6.10;3.55;;;;;;;;;;4993144;28;20419;-73
2022/08/18 12:22:56;;;;;;;6.35;3.40;;;;;;;;;;4981578;28;20031;-73
2022/08/18 12:25:22;;;;;;;8.65;4.85;;;;;;;;;;4991334;28;20572;-74
2022/08/18 12:27:48;;;;;;;9.48;5.00;;;;;;;;;;4966728;28;20027;-74
2022/08/18 12:30:15;;;;;;;8.40;5.55;;;;;;;;;;4988837;28;20034;-73
2022/08/18 12:32:41;;;;;;;7.68;4.28;;;;;;;;;;4986914;28;20031;-74
2022/08/18 12:35:10;;;;;;;7.60;4.90;;;;;;;;;;4961847;28;20030;-74
2022/08/18 12:37:37;;;;;;;6.80;3.35;;;;;;;;;;4987593;28;20547;-74
2022/08/18 12:40:03;;;;;;;6.85;2.88;;;;;;;;;;4981118;28;20031;-74
2022/08/18 12:42:29;;;;;;;6.10;3.00;;;;;;;;;;4956761;28;20494;-73
2022/08/18 12:44:55;;;;;;;8.13;4.13;;;;;;;;;;4983124;28;20058;-73
2022/08/18 12:47:23;;;;;;;7.07;4.50;;;;;;;;;;4973231;28;20429;-73
2022/08/18 12:49:49;;;;;;;7.28;3.72;;;;;;;;;;4983383;28;20023;-73
2022/08/18 12:52:15;;;;;;;5.05;3.13;;;;;;;;;;4955547;28;20438;-73
2022/08/18 12:54:42;;;;;;;6.63;3.85;;;;;;;;;;4984004;28;20027;-74
2022/08/18 12:57:11;;;;;;;9.77;4.43;;;;;;;;;;4972853;28;20035;-73
2022/08/18 12:59:37;;;;;;;6.00;3.88;;;;;;;;;;4986489;28;20037;-74
2022/08/18 13:02:03;;;;;;;6.40;4.18;;;;;;;;;;4982897;28;20498;-73
2022/08/18 13:04:29;;;;;;;4.22;2.50;;;;;;;;;;4977836;28;20109;-74
2022/08/18 13:06:57;;;;;;;4.20;2.38;;;;;;;;;;4990971;28;20181;-74
2022/08/18 13:09:23;;;;;;;4.88;3.00;;;;;;;;;;4983933;28;20042;-74
2022/08/18 13:11:49;;;;;;;4.22;2.38;;;;;;;;;;4974133;28;20026;-74
2022/08/18 13:14:15;;;;;;;3.50;2.28;;;;;;;;;;4979343;28;20041;-74
2022/08/18 13:16:43;;;;;;;5.57;2.63;;;;;;;;;;4987331;28;20029;-75
2022/08/18 13:19:09;;;;;;;4.90;2.80;;;;;;;;;;4988586;28;20178;-73
2022/08/18 13:21:35;;;;;;;4.32;2.83;;;;;;;;;;4975801;28;20145;-72
2022/08/18 13:24:03;;;;;;;5.43;2.70;;;;;;;;;;4978070;28;20026;-73
2022/08/18 13:26:34;;;;;;;5.63;2.53;;;;;;;;;;4978905;28;20027;-74
2022/08/18 13:29:01;;;;;;;4.10;2.60;;;;;;;;;;4976424;28;20038;-73
2022/08/18 13:31:27;;;;;;;7.07;2.58;;;;;;;;;;4980871;28;20026;-72
2022/08/18 13:34:00;;;;;;;4.18;2.40;;;;;;;;;;4982780;28;20030;-73
2022/08/18 13:36:43;;;;;;;6.32;2.65;;;;;;;;;;4980407;28;20038;-69
2022/08/18 13:39:11;;;;;;;5.20;2.83;;;;;;;;;;4976930;28;20122;-70
2022/08/18 13:41:38;;;;;;;5.70;3.13;;;;;;;;;;4961908;28;20121;-69
2022/08/18 13:44:04;;;;;;;5.80;2.95;;;;;;;;;;4976228;28;20042;-72
2022/08/18 13:46:30;;;;;;;4.22;2.75;;;;;;;;;;4978234;28;20038;-70
2022/08/18 13:49:01;;;;;;;6.80;2.67;;;;;;;;;;4975120;28;20081;-69
2022/08/18 13:51:27;;;;;;;5.43;2.60;;;;;;;;;;4975802;28;20568;-70
2022/08/18 13:53:53;;;;;;;6.90;2.88;;;;;;;;;;4957178;28;20038;-69
2022/08/18 13:56:19;;;;;;;6.57;2.88;;;;;;;;;;4963894;28;20100;-71
2022/08/18 13:58:45;;;;;;;5.13;2.72;;;;;;;;;;4978570;28;20034;-69
2022/08/18 14:01:11;;;;;;;5.10;2.92;;;;;;;;;;4971788;28;20069;-69
2022/08/18 14:03:38;;;;;;;7.28;2.80;;;;;;;;;;4979451;28;20054;-69
2022/08/18 14:06:04;;;;;;;3.78;2.55;;;;;;;;;;4973006;28;20085;-68
2022/08/18 14:08:31;;;;;;;4.22;2.65;;;;;;;;;;4960714;28;20038;-70
2022/08/18 14:10:59;;;;;;;5.65;3.10;;;;;;;;;;4974890;28;20564;-70
2022/08/18 14:13:25;;;;;;;5.05;2.92;;;;;;;;;;4977865;28;20040;-70
2022/08/18 14:15:55;;;;;;;4.15;2.72;;;;;;;;;;4978631;28;20044;-69
2022/08/18 14:18:21;;;;;;;6.88;4.40;;;;;;;;;;4975869;28;20043;-70
2022/08/18 14:29:03;;;;;;;5.32;3.47;;;;;;;;;;4978212;28;20128;-69
2022/08/18 14:31:29;;;;;;;4.82;2.50;;;;;;;;;;4974609;28;20038;-69
2022/08/18 14:33:56;;;;;;;5.95;2.72;;;;;;;;;;4970860;28;20034;-69
2022/08/18 14:36:23;;;;;;;5.70;2.70;;;;;;;;;;4973538;28;20030;-70
2022/08/18 14:38:50;;;;;;;5.60;2.75;;;;;;;;;;4972062;28;20129;-70
2022/08/18 14:41:16;;;;;;;5.10;2.83;;;;;;;;;;4977984;28;20131;-69
2022/08/18 14:43:44;;;;;;;5.10;2.75;;;;;;;;;;4957525;28;20049;-70
2022/08/18 14:46:11;;;;;;;4.65;2.35;;;;;;;;;;4952589;28;20069;-70
2022/08/18 14:48:37;;;;;;;4.50;2.20;;;;;;;;;;4976569;28;20050;-70
2022/08/18 14:51:03;;;;;;;4.10;2.30;;;;;;;;;;4980002;28;20033;-70
2022/08/18 14:53:30;;;;;;;4.13;2.78;;;;;;;;;;4974666;28;20117;-69
2022/08/18 14:55:58;;;;;;;4.28;2.40;;;;;;;;;;4974359;28;20037;-69
2022/08/18 14:58:26;;;;;;;4.32;2.47;;;;;;;;;;4982179;28;20041;-69
2022/08/18 15:00:53;;;;;;;2.80;1.70;;;;;;;;;;4970075;28;20145;-70
2022/08/18 15:03:20;;;;;;;3.45;2.33;;;;;;;;;;4980501;28;20109;-69
2022/08/18 15:05:46;;;;;;;4.22;2.40;;;;;;;;;;4989435;28;20029;-69
2022/08/18 15:08:12;;;;;;;3.15;2.35;;;;;;;;;;4967785;28;20030;-69
2022/08/18 15:10:38;;;;;;;6.82;3.63;;;;;;;;;;4973738;28;20182;-69
2022/08/18 15:13:04;;;;;;;6.25;3.72;;;;;;;;;;4974425;28;20026;-70